createdAt,value
2023-04-19T00:01:59.095Z,57.48
2023-04-19T00:04:28.918Z,57.54
2023-04-19T00:06:58.610Z,56.69
2023-04-19T00:09:26.756Z,57.36
2023-04-19T00:11:54.808Z,57.18
2023-04-19T00:14:22.882Z,57.51
2023-04-19T00:16:51.036Z,57.61
2023-04-19T00:19:19.220Z,57.87
2023-04-19T00:21:48.797Z,57.24
2023-04-19T00:24:16.992Z,57.36
2023-04-19T00:26:45.447Z,56.70
2023-04-19T00:29:13.494Z,57.31
2023-04-19T00:31:41.829Z,57.22
2023-04-19T00:34:09.857Z,56.99
2023-04-19T00:36:37.925Z,57.12
2023-04-19T00:39:07.996Z,57.48
2023-04-19T00:41:36.029Z,58.06
2023-04-19T00:44:04.099Z,58.09
2023-04-19T00:46:32.391Z,58.51
2023-04-19T00:49:01.155Z,57.85
2023-04-19T00:51:29.370Z,58.50
2023-04-19T00:53:58.566Z,58.25
2023-04-19T00:56:28.623Z,59.29
2023-04-19T00:58:57.753Z,58.88
2023-04-19T01:01:25.756Z,59.13
2023-04-19T01:03:54.115Z,59.21
2023-04-19T01:06:22.448Z,59.00
2023-04-19T01:08:50.558Z,58.66
2023-04-19T01:11:18.665Z,59.24
2023-04-19T01:13:48.127Z,59.04
2023-04-19T01:16:16.233Z,59.22
2023-04-19T01:18:44.369Z,59.51
2023-04-19T01:21:12.948Z,59.56
2023-04-19T01:23:42.313Z,59.24
2023-04-19T01:26:10.380Z,58.38
2023-04-19T01:28:38.661Z,58.78
2023-04-19T01:31:06.818Z,58.64
2023-04-19T01:33:34.971Z,57.92
2023-04-19T01:36:03.203Z,57.95
2023-04-19T01:38:31.883Z,58.39
2023-04-19T01:41:03.887Z,58.08
2023-04-19T01:43:34.927Z,58.32
2023-04-19T01:46:03.941Z,57.84
2023-04-19T01:48:32.685Z,58.49
2023-04-19T01:51:01.117Z,58.27
2023-04-19T01:53:29.786Z,58.15
2023-04-19T01:55:58.078Z,58.32
2023-04-19T01:58:27.763Z,58.75
2023-04-19T02:00:55.847Z,58.60
2023-04-19T02:03:24.316Z,58.71
2023-04-19T02:05:52.562Z,59.37
2023-04-19T02:08:20.622Z,60.00
2023-04-19T02:10:48.656Z,59.49
2023-04-19T02:13:16.678Z,58.58
2023-04-19T02:15:46.167Z,58.73
2023-04-19T02:18:14.285Z,58.66
2023-04-19T02:20:42.414Z,58.62
2023-04-19T02:23:10.477Z,58.86
2023-04-19T02:25:38.541Z,58.95
2023-04-19T02:28:06.728Z,59.63
2023-04-19T02:30:34.761Z,59.41
2023-04-19T02:33:04.363Z,58.76
2023-04-19T02:35:32.496Z,59.50
2023-04-19T02:38:01.694Z,59.46
2023-04-19T02:40:29.831Z,59.48
2023-04-19T02:42:57.945Z,59.47
2023-04-19T02:45:26.189Z,59.76
2023-04-19T02:47:54.365Z,59.67
2023-04-19T02:50:23.909Z,59.83
2023-04-19T02:52:52.021Z,60.44
2023-04-19T02:55:20.279Z,60.83
2023-04-19T02:57:48.336Z,61.14
2023-04-19T03:00:17.295Z,62.25
2023-04-19T03:02:45.578Z,61.95
2023-04-19T03:05:13.782Z,61.51
2023-04-19T03:07:44.535Z,62.15
2023-04-19T03:10:12.912Z,62.06
2023-04-19T03:12:40.933Z,63.19
2023-04-19T03:15:09.994Z,63.58
2023-04-19T03:17:38.253Z,63.50
2023-04-19T03:20:09.905Z,64.21
2023-04-19T03:22:38.047Z,64.94
2023-04-19T03:25:08.712Z,65.40
2023-04-19T03:27:37.404Z,65.48
2023-04-19T03:30:06.444Z,65.69
2023-04-19T03:32:34.495Z,65.89
2023-04-19T03:35:02.619Z,66.48
2023-04-19T03:37:30.719Z,67.84
2023-04-19T03:39:58.792Z,66.81
2023-04-19T03:42:29.184Z,66.31
2023-04-19T03:44:57.479Z,66.93
2023-04-19T03:47:25.596Z,69.27
2023-04-19T03:49:53.628Z,70.88
2023-04-19T03:52:21.694Z,77.45
2023-04-19T03:54:49.753Z,75.43
2023-04-19T03:57:19.140Z,81.81
2023-04-19T03:59:48.588Z,81.33
2023-04-19T04:02:16.644Z,85.02
2023-04-19T04:04:45.461Z,89.50
2023-04-19T04:07:14.061Z,87.44
2023-04-19T04:09:42.155Z,90.88
2023-04-19T04:12:10.164Z,92.66
2023-04-19T04:14:38.276Z,96.05
2023-04-19T04:19:53.167Z,98.61
2023-04-19T04:22:21.828Z,99.51
2023-04-19T04:24:49.928Z,100.00
2023-04-19T04:27:21.541Z,97.29
2023-04-19T04:29:49.616Z,89.45
2023-04-19T04:32:23.332Z,82.61
2023-04-19T04:34:51.791Z,76.77
2023-04-19T04:37:20.087Z,73.35
2023-04-19T04:39:48.322Z,69.05
2023-04-19T04:42:16.540Z,69.09
2023-04-19T04:44:45.178Z,70.33
2023-04-19T04:47:14.164Z,71.93
2023-04-19T04:49:43.690Z,73.51
2023-04-19T04:52:11.792Z,73.28
2023-04-19T04:54:39.855Z,68.50
2023-04-19T04:57:07.893Z,66.05
2023-04-19T04:59:36.012Z,61.55
2023-04-19T05:02:04.092Z,60.37
2023-04-19T05:04:32.260Z,60.70
2023-04-19T05:07:01.752Z,59.11
2023-04-19T05:09:29.841Z,60.13
2023-04-19T05:11:57.909Z,57.98
2023-04-19T05:14:26.105Z,52.79
2023-04-19T05:16:54.214Z,52.37
2023-04-19T05:19:22.451Z,56.16
2023-04-19T05:21:50.441Z,50.61
2023-04-19T05:24:22.011Z,49.72
2023-04-19T05:26:50.994Z,48.80
2023-04-19T05:29:19.056Z,45.60
2023-04-19T05:31:47.280Z,42.41
2023-04-19T05:34:15.600Z,41.34
2023-04-19T05:36:44.055Z,37.36
2023-04-19T05:39:12.130Z,40.30
2023-04-19T05:41:41.640Z,40.27
2023-04-19T05:44:09.717Z,39.19
2023-04-19T05:46:37.954Z,37.01
2023-04-19T05:49:06.205Z,37.17
2023-04-19T05:51:34.277Z,33.91
2023-04-19T05:54:02.434Z,31.20
2023-04-19T05:56:30.815Z,32.80
2023-04-19T05:59:01.165Z,33.04
2023-04-19T06:01:29.300Z,33.29
2023-04-19T06:03:57.647Z,34.41
2023-04-19T06:06:26.225Z,36.12
2023-04-19T06:08:54.981Z,36.24
2023-04-19T06:11:31.500Z,36.63
2023-04-19T06:14:08.252Z,37.26
2023-04-19T06:16:36.456Z,37.22
2023-04-19T06:19:04.753Z,38.12
2023-04-19T06:21:33.002Z,38.75
2023-04-19T06:24:01.149Z,38.64
2023-04-19T06:26:29.360Z,38.79
2023-04-19T06:28:57.371Z,38.14
2023-04-19T06:31:26.875Z,39.59
2023-04-19T06:33:55.060Z,39.80
2023-04-19T06:36:23.274Z,40.47
2023-04-19T06:38:51.304Z,39.84
2023-04-19T06:41:19.637Z,40.61
2023-04-19T06:43:47.883Z,39.95
2023-04-19T06:46:16.099Z,39.60
2023-04-19T06:48:45.567Z,38.99
2023-04-19T06:51:13.662Z,39.69
2023-04-19T06:53:41.787Z,38.67
2023-04-19T06:56:10.376Z,38.45
2023-04-19T06:58:38.412Z,39.22
2023-04-19T07:01:06.773Z,37.81
2023-04-19T07:03:35.087Z,38.96
2023-04-19T07:06:04.960Z,38.44
2023-04-19T07:08:46.279Z,38.66
2023-04-19T07:11:17.208Z,37.84
2023-04-19T07:13:45.365Z,37.44
2023-04-19T07:16:14.690Z,38.18
2023-04-19T07:18:44.017Z,38.19
2023-04-19T07:21:13.484Z,36.55
2023-04-19T07:23:41.568Z,37.70
2023-04-19T07:26:09.914Z,37.25
2023-04-19T07:28:38.000Z,36.58
2023-04-19T07:31:06.816Z,35.66
2023-04-19T07:33:35.757Z,34.97
2023-04-19T07:36:03.924Z,35.68
2023-04-19T07:38:33.371Z,35.36
2023-04-19T07:41:01.623Z,35.70
2023-04-19T07:43:31.495Z,34.79
2023-04-19T07:45:59.625Z,35.72
2023-04-19T07:48:27.816Z,34.73
2023-04-19T07:50:55.879Z,37.04
2023-04-19T07:53:23.961Z,38.88
2023-04-19T07:55:53.443Z,40.79
2023-04-19T07:58:21.497Z,42.23
2023-04-19T08:00:49.653Z,40.14
2023-04-19T08:03:17.964Z,41.61
2023-04-19T08:05:46.366Z,40.55
2023-04-19T08:08:14.512Z,41.22
2023-04-19T08:10:42.781Z,42.57
2023-04-19T08:13:12.330Z,43.31
2023-04-19T08:18:14.417Z,42.46
2023-04-19T08:20:43.606Z,43.60
2023-04-19T08:23:22.351Z,43.00
2023-04-19T08:25:52.628Z,43.04
2023-04-19T08:28:22.189Z,43.50
2023-04-19T08:30:50.654Z,44.18
2023-04-19T08:33:19.253Z,43.64
2023-04-19T08:35:47.292Z,43.10
2023-04-19T08:38:15.581Z,42.80
2023-04-19T08:40:48.317Z,42.57
2023-04-19T08:43:19.045Z,43.50
2023-04-19T08:45:50.450Z,44.23
2023-04-19T08:48:19.532Z,45.70
2023-04-19T08:50:56.453Z,45.29
2023-04-19T08:53:30.648Z,45.91
2023-04-19T08:56:12.799Z,47.11
2023-04-19T09:04:00.359Z,46.75
2023-04-19T09:06:37.819Z,46.42
2023-04-19T09:09:33.149Z,47.33
2023-04-19T09:12:03.708Z,49.59
2023-04-19T09:14:32.166Z,48.84
2023-04-19T09:17:18.099Z,48.63
2023-04-19T09:19:50.332Z,50.03
2023-04-19T09:22:18.950Z,47.63
2023-04-19T09:25:27.682Z,45.20
2023-04-19T09:27:36.591Z,46.23
2023-04-19T09:30:06.750Z,46.74
2023-04-19T09:32:49.365Z,47.51
2023-04-19T09:35:18.012Z,47.89
2023-04-19T09:38:05.584Z,45.46
2023-04-19T09:40:35.008Z,45.78
2023-04-19T09:43:23.156Z,48.33
2023-04-19T09:45:51.824Z,48.49
2023-04-19T09:48:21.440Z,45.04
2023-04-19T09:50:58.331Z,45.62
2023-04-19T09:53:30.257Z,43.91
2023-04-19T09:56:02.069Z,46.02
2023-04-19T10:01:14.049Z,45.86
2023-04-19T10:03:47.006Z,43.99
2023-04-19T10:06:40.183Z,45.22
2023-04-19T10:09:06.958Z,46.36
2023-04-19T10:11:40.266Z,46.72
2023-04-19T10:14:10.347Z,48.57
2023-04-19T10:16:39.895Z,45.03
2023-04-19T10:19:11.903Z,46.83
2023-04-19T10:21:41.218Z,46.93
2023-04-19T10:24:10.685Z,45.29
2023-04-19T10:27:11.488Z,47.66
2023-04-19T10:29:59.489Z,49.33
2023-04-19T10:32:28.963Z,49.34
2023-04-19T10:35:03.334Z,51.01
2023-04-19T10:37:33.243Z,53.68
2023-04-19T10:40:01.521Z,56.59
2023-04-19T10:43:03.082Z,58.22
2023-04-19T10:45:34.817Z,60.73
2023-04-19T10:48:05.017Z,63.83
2023-04-19T10:51:00.214Z,63.77
2023-04-19T10:53:47.698Z,63.19
2023-04-19T10:56:17.074Z,62.31
2023-04-19T10:59:26.933Z,61.27
2023-04-19T11:01:57.937Z,61.09
2023-04-19T11:05:00.699Z,63.44
2023-04-19T11:07:30.717Z,60.82
2023-04-19T11:09:58.817Z,59.85
2023-04-19T11:12:26.858Z,59.91
2023-04-19T11:14:57.821Z,60.03
2023-04-19T11:17:27.925Z,61.06
2023-04-19T11:19:57.294Z,61.43
2023-04-19T11:22:34.084Z,59.06
2023-04-19T11:25:10.505Z,59.18
2023-04-19T11:27:40.860Z,58.37
2023-04-19T11:30:13.283Z,56.45
2023-04-19T11:32:47.247Z,57.68
2023-04-19T11:35:15.620Z,59.63
2023-04-19T11:37:45.174Z,64.05
2023-04-19T11:40:16.897Z,68.67
2023-04-19T11:42:45.210Z,68.43
2023-04-19T11:45:29.857Z,71.51
2023-04-19T11:48:00.291Z,72.83
2023-04-19T11:50:36.289Z,74.15
2023-04-19T11:53:16.820Z,71.61
2023-04-19T11:55:46.839Z,69.44
2023-04-19T11:58:32.594Z,67.94
2023-04-19T12:01:07.513Z,64.00
2023-04-19T12:03:36.631Z,64.30
2023-04-19T12:06:09.086Z,65.02
2023-04-19T12:08:40.288Z,66.52
2023-04-19T12:11:08.460Z,67.44
2023-04-19T12:13:37.685Z,69.16
2023-04-19T12:16:06.405Z,71.05
2023-04-19T12:18:45.383Z,73.31
2023-04-19T12:21:25.464Z,72.65
2023-04-19T12:23:57.423Z,74.07
2023-04-19T12:26:25.766Z,72.83
2023-04-19T12:28:54.930Z,72.30
2023-04-19T12:31:23.034Z,73.56
2023-04-19T12:33:51.471Z,73.11
2023-04-19T12:36:22.396Z,70.47
2023-04-19T12:38:50.648Z,69.77
2023-04-19T12:41:21.294Z,68.22
2023-04-19T12:43:49.510Z,66.99
2023-04-19T12:46:17.629Z,63.06
2023-04-19T12:48:46.262Z,61.87
2023-04-19T12:51:14.442Z,60.82
2023-04-19T12:53:43.097Z,59.66
2023-04-19T12:56:12.442Z,59.39
2023-04-19T12:58:41.952Z,57.22
2023-04-19T13:01:10.457Z,57.78
2023-04-19T13:03:39.173Z,58.55
2023-04-19T13:06:07.820Z,58.41
2023-04-19T13:08:44.688Z,56.50
2023-04-19T13:11:14.756Z,54.35
2023-04-19T13:13:44.293Z,52.84
2023-04-19T13:16:12.379Z,53.45
2023-04-19T13:18:40.456Z,53.01
2023-04-19T13:21:08.907Z,51.76
2023-04-19T13:23:37.009Z,53.28
2023-04-19T13:26:05.184Z,51.35
2023-04-19T13:28:35.824Z,49.82
2023-04-19T13:31:06.729Z,48.73
2023-04-19T13:33:35.119Z,54.08
2023-04-19T13:36:05.213Z,59.98
2023-04-19T13:38:33.350Z,59.91
2023-04-19T13:41:01.549Z,59.98
2023-04-19T13:43:29.571Z,61.36
2023-04-19T13:45:58.879Z,62.18
2023-04-19T13:48:29.171Z,63.08
2023-04-19T13:50:57.506Z,62.99
2023-04-19T13:53:27.226Z,63.85
2023-04-19T13:55:55.395Z,68.38
2023-04-19T13:58:24.878Z,71.24
2023-04-19T14:00:53.691Z,73.10
2023-04-19T14:03:23.482Z,70.35
2023-04-19T14:05:53.226Z,71.96
2023-04-19T14:08:21.444Z,69.75
2023-04-19T14:10:49.866Z,73.15
2023-04-19T14:13:20.766Z,73.32
2023-04-19T14:15:48.871Z,71.87
2023-04-19T14:18:17.146Z,72.50
2023-04-19T14:20:45.726Z,69.90
2023-04-19T14:23:15.257Z,72.27
2023-04-19T14:25:43.376Z,74.21
2023-04-19T14:28:12.970Z,77.19
2023-04-19T14:30:41.555Z,74.05
2023-04-19T14:33:09.818Z,76.81
2023-04-19T14:35:38.085Z,76.08
2023-04-19T14:38:06.679Z,78.66
2023-04-19T14:40:36.592Z,75.41
2023-04-19T14:43:04.814Z,76.75
2023-04-19T14:45:33.189Z,76.17
2023-04-19T14:48:01.543Z,75.80
2023-04-19T14:50:29.710Z,73.97
2023-04-19T14:52:57.748Z,75.25
2023-04-19T14:55:27.623Z,77.97
2023-04-19T14:57:57.165Z,78.76
2023-04-19T15:00:25.554Z,74.75
2023-04-19T15:02:53.947Z,76.29
2023-04-19T15:05:23.892Z,75.48
2023-04-19T15:07:52.282Z,75.53
2023-04-19T15:10:20.356Z,73.76
2023-04-19T15:12:48.485Z,73.92
2023-04-19T15:15:18.009Z,72.71
2023-04-19T15:17:46.552Z,72.24
2023-04-19T15:20:14.905Z,70.27
2023-04-19T15:22:42.973Z,73.40
2023-04-19T15:25:11.827Z,74.26
2023-04-19T15:27:39.858Z,76.14
2023-04-19T15:30:09.276Z,76.37
2023-04-19T15:32:38.919Z,79.01
2023-04-19T15:35:07.814Z,80.21
2023-04-19T15:37:35.994Z,81.57
2023-04-19T15:40:05.378Z,81.75
2023-04-19T15:42:34.130Z,80.52
2023-04-19T15:45:02.293Z,78.44
2023-04-19T15:47:30.966Z,71.56
2023-04-19T15:50:01.746Z,74.21
2023-04-19T15:52:29.910Z,73.27
2023-04-19T15:54:58.081Z,72.20
2023-04-19T15:57:26.563Z,74.57
2023-04-19T15:59:54.675Z,73.88
2023-04-19T16:02:23.245Z,72.29
2023-04-19T16:04:51.745Z,71.84
2023-04-19T16:07:21.353Z,72.35
2023-04-19T16:09:49.532Z,72.34
2023-04-19T16:12:17.610Z,73.90
2023-04-19T16:14:45.944Z,75.01
2023-04-19T16:17:14.018Z,74.74
2023-04-19T16:19:42.165Z,75.24
2023-04-19T16:22:10.230Z,76.21
2023-04-19T16:24:39.757Z,75.92
2023-04-19T16:27:07.866Z,76.46
2023-04-19T16:29:35.982Z,76.75
2023-04-19T16:32:04.143Z,76.84
2023-04-19T16:34:32.333Z,76.01
2023-04-19T16:37:00.562Z,75.83
2023-04-19T16:39:28.622Z,76.28
2023-04-19T16:41:58.517Z,78.11
2023-04-19T16:44:26.757Z,77.83
2023-04-19T16:46:54.844Z,78.81
2023-04-19T16:49:23.052Z,80.69
2023-04-19T16:51:51.259Z,78.30
2023-04-19T16:54:19.381Z,78.38
2023-04-19T16:56:47.604Z,80.60
2023-04-19T16:59:18.271Z,80.52
2023-04-19T17:01:46.509Z,81.43
2023-04-19T17:04:14.842Z,82.66
2023-04-19T17:06:43.196Z,84.54
2023-04-19T17:09:11.327Z,85.97
2023-04-19T17:11:39.522Z,86.90
2023-04-19T17:14:07.590Z,87.96
2023-04-19T17:16:38.062Z,90.38
2023-04-19T17:19:06.528Z,92.06
2023-04-19T17:21:34.809Z,93.88
2023-04-19T17:24:03.310Z,93.83
2023-04-19T17:26:31.547Z,93.62
2023-04-19T17:29:14.367Z,95.48
2023-04-19T17:31:43.796Z,97.63
2023-04-19T17:34:12.052Z,98.12
2023-04-19T17:36:43.906Z,98.64
2023-04-19T17:39:12.207Z,100.00
2023-04-19T17:41:41.459Z,100.00
2023-04-19T17:44:11.696Z,100.00
2023-04-19T17:46:40.931Z,100.00
2023-04-19T17:49:13.369Z,100.00
2023-04-19T17:51:41.974Z,100.00
2023-04-19T17:54:10.536Z,100.00
2023-04-19T17:56:39.492Z,100.00
2023-04-19T17:59:08.003Z,100.00
2023-04-19T18:01:37.436Z,100.00
2023-04-19T18:04:08.579Z,100.00
2023-04-19T18:06:38.714Z,100.00
2023-04-19T18:09:08.159Z,100.00
2023-04-19T18:11:37.668Z,100.00
2023-04-19T18:14:06.326Z,100.00
2023-04-19T18:16:37.059Z,100.00
2023-04-19T18:19:06.061Z,100.00
2023-04-19T18:21:36.694Z,100.00
2023-04-19T18:24:08.098Z,100.00
2023-04-19T18:26:41.823Z,100.00
2023-04-19T18:29:11.361Z,100.00
2023-04-19T18:31:40.063Z,100.00
2023-04-19T18:34:11.908Z,100.00
2023-04-19T18:36:41.574Z,100.00
2023-04-19T18:39:14.061Z,100.00
2023-04-19T18:41:43.696Z,100.00
2023-04-19T18:44:38.961Z,100.00
2023-04-19T18:47:08.078Z,100.00
2023-04-19T18:49:37.256Z,100.00
2023-04-19T18:52:06.975Z,100.00
2023-04-19T18:54:37.430Z,100.00
2023-04-19T18:57:22.742Z,100.00
2023-04-19T18:59:52.027Z,100.00
2023-04-19T19:02:22.163Z,100.00
2023-04-19T19:04:57.691Z,100.00
2023-04-19T19:10:17.121Z,100.00
2023-04-19T19:12:51.131Z,100.00
2023-04-19T19:15:21.107Z,100.00
2023-04-19T19:17:56.021Z,100.00
2023-04-19T19:20:25.541Z,100.00
2023-04-19T19:22:56.066Z,100.00
2023-04-19T19:25:27.410Z,100.00
2023-04-19T19:28:06.964Z,100.00
2023-04-19T19:30:40.532Z,100.00
2023-04-19T19:33:10.462Z,100.00
2023-04-19T19:35:40.472Z,100.00
2023-04-19T19:38:09.891Z,100.00
2023-04-19T19:41:04.133Z,100.00
2023-04-19T19:43:29.142Z,100.00
2023-04-19T19:45:58.571Z,100.00
2023-04-19T19:48:30.238Z,100.00
2023-04-19T19:53:32.594Z,100.00
2023-04-19T19:56:04.301Z,100.00
2023-04-19T19:58:49.625Z,100.00
2023-04-19T20:01:23.721Z,100.00
2023-04-19T20:03:56.827Z,100.00
2023-04-19T20:07:21.531Z,100.00
2023-04-19T20:09:15.996Z,100.00
2023-04-19T20:11:49.298Z,100.00
2023-04-19T20:14:19.190Z,100.00
2023-04-19T20:16:49.362Z,100.00
2023-04-19T20:19:18.869Z,100.00
2023-04-19T20:21:54.256Z,100.00
2023-04-19T20:24:23.616Z,100.00
2023-04-19T20:26:54.689Z,100.00
2023-04-19T20:29:23.556Z,100.00
2023-04-19T20:31:53.085Z,100.00
2023-04-19T20:34:22.911Z,100.00
2023-04-19T20:36:52.713Z,100.00
2023-04-19T20:39:23.722Z,100.00
2023-04-19T20:41:55.067Z,100.00
2023-04-19T20:44:25.390Z,100.00
2023-04-19T20:46:54.430Z,100.00
2023-04-19T20:49:23.919Z,100.00
2023-04-19T20:51:52.371Z,100.00
2023-04-19T20:54:20.873Z,100.00
2023-04-19T20:56:50.002Z,100.00
2023-04-19T20:59:20.018Z,100.00
2023-04-19T21:01:48.393Z,100.00
2023-04-19T21:04:16.798Z,100.00
2023-04-19T21:06:48.359Z,100.00
2023-04-19T21:09:16.808Z,100.00
2023-04-19T21:11:45.224Z,100.00
2023-04-19T21:14:13.281Z,100.00
2023-04-19T21:16:45.196Z,100.00
2023-04-19T21:19:13.824Z,100.00
2023-04-19T21:21:41.940Z,100.00
2023-04-19T21:24:10.034Z,100.00
2023-04-19T21:26:40.920Z,100.00
2023-04-19T21:29:09.006Z,100.00
2023-04-19T21:31:37.090Z,100.00
2023-04-19T21:34:06.619Z,100.00
2023-04-19T21:36:34.705Z,100.00
2023-04-19T21:39:02.819Z,100.00
2023-04-19T21:41:30.882Z,100.00
2023-04-19T21:43:58.890Z,100.00
2023-04-19T21:46:26.972Z,100.00
2023-04-19T21:48:56.010Z,100.00
2023-04-19T21:51:25.752Z,100.00
2023-04-19T21:53:53.837Z,100.00
2023-04-19T21:56:21.887Z,100.00
2023-04-19T21:58:49.956Z,100.00
2023-04-19T22:01:18.015Z,100.00
2023-04-19T22:03:47.246Z,100.00
2023-04-19T22:06:17.257Z,100.00
2023-04-19T22:08:48.521Z,100.00
2023-04-19T22:11:16.963Z,100.00
2023-04-19T22:13:45.347Z,100.00
2023-04-19T22:16:13.493Z,100.00
2023-04-19T22:18:41.611Z,100.00
2023-04-19T22:21:10.892Z,100.00
2023-04-19T22:23:39.084Z,100.00
2023-04-19T22:26:08.593Z,100.00
2023-04-19T22:28:36.800Z,100.00
2023-04-19T22:31:05.020Z,100.00
2023-04-19T22:33:33.072Z,100.00
2023-04-19T22:36:01.148Z,100.00
2023-04-19T22:38:29.245Z,100.00
2023-04-19T22:40:57.627Z,100.00
2023-04-19T22:43:27.129Z,100.00
2023-04-19T22:45:55.303Z,100.00
2023-04-19T22:48:24.576Z,100.00
2023-04-19T22:50:53.629Z,100.00
2023-04-19T22:53:21.864Z,100.00
2023-04-19T22:55:50.086Z,100.00
2023-04-19T22:58:18.568Z,100.00
2023-04-19T23:00:48.399Z,100.00
2023-04-19T23:03:16.829Z,100.00
2023-04-19T23:05:45.063Z,100.00
2023-04-19T23:08:13.143Z,100.00
2023-04-19T23:10:42.578Z,100.00
2023-04-19T23:13:11.221Z,100.00
2023-04-19T23:15:39.482Z,100.00
2023-04-19T23:18:09.852Z,100.00
2023-04-19T23:20:37.933Z,100.00
2023-04-19T23:23:08.069Z,100.00
2023-04-19T23:25:36.132Z,100.00
2023-04-19T23:28:04.191Z,100.00
2023-04-19T23:30:32.338Z,100.00
2023-04-19T23:33:00.835Z,100.00
2023-04-19T23:35:30.635Z,100.00
2023-04-19T23:37:58.673Z,100.00
2023-04-19T23:40:26.728Z,100.00
2023-04-19T23:42:54.802Z,100.00
2023-04-19T23:45:23.274Z,100.00
2023-04-19T23:47:51.364Z,100.00
2023-04-19T23:50:19.433Z,100.00
2023-04-19T23:52:48.885Z,100.00
2023-04-19T23:55:17.105Z,100.00
2023-04-19T23:57:45.173Z,100.00
